ALAS76 MPMG-MPEJ
Flight info
| Callsign | ALAS76 |
|---|---|
| Flight time | N/A |
| Altitude | 2500 |
| Route | KABAB DCT ENRIG |
| Aircraft | DA40/L-SDGRY/S |
Departure
| Time | 2026-04-21 19:07 |
|---|---|
| Airport | Marcos A. Gelabert International Airport (MPMG) |
Arrival
| Time | N/A |
|---|---|
| Airport | Enrique Adolfo Jimenez Airport (MPEJ) |
| Time | Latitude | Longitude | Altitude | Speed | Heading |
|---|---|---|---|---|---|
| 2026-04-21 19:06 | 8.96524 | -79.55705 | 28 ft | 0 kts | 17° |
| 2026-04-21 19:06 | 8.96548 | -79.55678 | 27 ft | 8 kts | 99° |
| 2026-04-21 19:06 | 8.96637 | -79.55618 | 26 ft | 39 kts | 6° |
| 2026-04-21 19:06 | 8.97065 | -79.55572 | 28 ft | 81 kts | 6° |
| 2026-04-21 19:07 | 8.97718 | -79.55540 | 70 ft | 104 kts | 2° |
| 2026-04-21 19:07 | 8.98409 | -79.55520 | 345 ft | 97 kts | 2° |
| 2026-04-21 19:07 | 8.99063 | -79.55494 | 616 ft | 92 kts | 2° |
| 2026-04-21 19:07 | 8.99692 | -79.55459 | 844 ft | 88 kts | 1° |
| 2026-04-21 19:08 | 9.00283 | -79.55403 | 1097 ft | 84 kts | 4° |
| 2026-04-21 19:08 | 9.00863 | -79.55350 | 1269 ft | 82 kts | 6° |
| 2026-04-21 19:08 | 9.01412 | -79.55445 | 1590 ft | 84 kts | 343° |
| 2026-04-21 19:08 | 9.01747 | -79.55658 | 1744 ft | 87 kts | 323° |
| 2026-04-21 19:09 | 9.02207 | -79.56049 | 2006 ft | 85 kts | 324° |
| 2026-04-21 19:09 | 9.02651 | -79.56431 | 2239 ft | 85 kts | 322° |
| 2026-04-21 19:09 | 9.03117 | -79.56829 | 2422 ft | 90 kts | 323° |
| 2026-04-21 19:09 | 9.03641 | -79.57272 | 2449 ft | 106 kts | 324° |
| 2026-04-21 19:10 | 9.04218 | -79.57761 | 2448 ft | 108 kts | 326° |
| 2026-04-21 19:10 | 9.04977 | -79.58403 | 2445 ft | 106 kts | 326° |
| 2026-04-21 19:10 | 9.05355 | -79.58727 | 2449 ft | 106 kts | 325° |
| 2026-04-21 19:10 | 9.05915 | -79.59205 | 2449 ft | 105 kts | 326° |
| 2026-04-21 19:11 | 9.06463 | -79.59689 | 2449 ft | 105 kts | 322° |
| 2026-04-21 19:11 | 9.07016 | -79.60189 | 2451 ft | 109 kts | 322° |
| 2026-04-21 19:11 | 9.07581 | -79.60704 | 2456 ft | 110 kts | 323° |
| 2026-04-21 19:11 | 9.08153 | -79.61223 | 2455 ft | 111 kts | 322° |
| 2026-04-21 19:12 | 9.08733 | -79.61754 | 2460 ft | 113 kts | 322° |
| 2026-04-21 19:12 | 9.09313 | -79.62285 | 2460 ft | 114 kts | 323° |
| 2026-04-21 19:12 | 9.09901 | -79.62822 | 2459 ft | 113 kts | 326° |
| 2026-04-21 19:12 | 9.10487 | -79.63353 | 2467 ft | 114 kts | 324° |
| 2026-04-21 19:13 | 9.11077 | -79.63890 | 2465 ft | 114 kts | 325° |
| 2026-04-21 19:13 | 9.11658 | -79.64425 | 2464 ft | 113 kts | 325° |
| 2026-04-21 19:13 | 9.12236 | -79.64953 | 2469 ft | 111 kts | 325° |
| 2026-04-21 19:13 | 9.12804 | -79.65475 | 2463 ft | 109 kts | 327° |
| 2026-04-21 19:14 | 9.13375 | -79.65993 | 2467 ft | 112 kts | 324° |
| 2026-04-21 19:14 | 9.13960 | -79.66523 | 2465 ft | 113 kts | 322° |
| 2026-04-21 19:14 | 9.14535 | -79.67050 | 2495 ft | 111 kts | 321° |
| 2026-04-21 19:14 | 9.15098 | -79.67566 | 2495 ft | 108 kts | 322° |
| 2026-04-21 19:15 | 9.15648 | -79.68071 | 2496 ft | 106 kts | 324° |
| 2026-04-21 19:15 | 9.16201 | -79.68575 | 2500 ft | 108 kts | 322° |
| 2026-04-21 19:15 | 9.16762 | -79.69085 | 2498 ft | 108 kts | 324° |
| 2026-04-21 19:15 | 9.17318 | -79.69589 | 2497 ft | 107 kts | 324° |
| 2026-04-21 19:16 | 9.17854 | -79.70083 | 2492 ft | 101 kts | 323° |
| 2026-04-21 19:16 | 9.18370 | -79.70558 | 2502 ft | 100 kts | 324° |
| 2026-04-21 19:16 | 9.18892 | -79.71038 | 2500 ft | 102 kts | 323° |
| 2026-04-21 19:16 | 9.19436 | -79.71532 | 2497 ft | 107 kts | 325° |
| 2026-04-21 19:17 | 9.20529 | -79.72524 | 2496 ft | 103 kts | 324° |
| 2026-04-21 19:17 | 9.21048 | -79.73002 | 2489 ft | 99 kts | 322° |
| 2026-04-21 19:17 | 9.21551 | -79.73462 | 2505 ft | 94 kts | 324° |
| 2026-04-21 19:18 | 9.22034 | -79.73907 | 2506 ft | 94 kts | 323° |
| 2026-04-21 19:18 | 9.22525 | -79.74363 | 2505 ft | 99 kts | 323° |
| 2026-04-21 19:18 | 9.23038 | -79.74832 | 2509 ft | 100 kts | 322° |
| 2026-04-21 19:18 | 9.23572 | -79.75316 | 2503 ft | 104 kts | 321° |
| 2026-04-21 19:19 | 9.24106 | -79.75801 | 2506 ft | 103 kts | 323° |
| 2026-04-21 19:19 | 9.24634 | -79.76286 | 2507 ft | 103 kts | 320° |
| 2026-04-21 19:19 | 9.25174 | -79.76777 | 2511 ft | 106 kts | 322° |
| 2026-04-21 19:19 | 9.25728 | -79.77279 | 2510 ft | 108 kts | 323° |
| 2026-04-21 19:20 | 9.26291 | -79.77790 | 2500 ft | 110 kts | 321° |
| 2026-04-21 19:20 | 9.26863 | -79.78315 | 2502 ft | 111 kts | 323° |
| 2026-04-21 19:20 | 9.27431 | -79.78835 | 2504 ft | 110 kts | 323° |
| 2026-04-21 19:20 | 9.27990 | -79.79344 | 2496 ft | 109 kts | 323° |
| 2026-04-21 19:21 | 9.28534 | -79.79846 | 2511 ft | 106 kts | 321° |
| 2026-04-21 19:21 | 9.29098 | -79.80361 | 2502 ft | 110 kts | 323° |
| 2026-04-21 19:21 | 9.29673 | -79.80884 | 2501 ft | 113 kts | 323° |
| 2026-04-21 19:21 | 9.30258 | -79.81418 | 2502 ft | 114 kts | 323° |
| 2026-04-21 19:22 | 9.30848 | -79.81956 | 2499 ft | 114 kts | 323° |
| 2026-04-21 19:22 | 9.31434 | -79.82492 | 2498 ft | 112 kts | 323° |
| 2026-04-21 19:22 | 9.32014 | -79.83023 | 2494 ft | 113 kts | 322° |
| 2026-04-21 19:22 | 9.32605 | -79.83564 | 2495 ft | 116 kts | 323° |
| 2026-04-21 19:23 | 9.33206 | -79.84114 | 2497 ft | 117 kts | 323° |
| 2026-04-21 19:23 | 9.33813 | -79.84668 | 2495 ft | 117 kts | 323° |
| 2026-04-21 19:23 | 9.34417 | -79.85220 | 2492 ft | 116 kts | 324° |
| 2026-04-21 19:23 | 9.35011 | -79.85764 | 2506 ft | 116 kts | 324° |
| 2026-04-21 19:24 | 9.35619 | -79.86319 | 2492 ft | 118 kts | 324° |
| 2026-04-21 19:24 | 9.36214 | -79.86869 | 2492 ft | 113 kts | 324° |
| 2026-04-21 19:24 | 9.36793 | -79.87397 | 2504 ft | 112 kts | 325° |
| 2026-04-21 19:24 | 9.37388 | -79.87938 | 2503 ft | 121 kts | 325° |
| 2026-04-21 19:25 | 9.38020 | -79.88520 | 2489 ft | 124 kts | 324° |
| 2026-04-21 19:25 | 9.38658 | -79.89099 | 2482 ft | 123 kts | 324° |
| 2026-04-21 19:25 | 9.39271 | -79.89663 | 2493 ft | 117 kts | 324° |
| 2026-04-21 19:25 | 9.39865 | -79.90209 | 2492 ft | 114 kts | 324° |
| 2026-04-21 19:26 | 9.40451 | -79.90745 | 2492 ft | 113 kts | 324° |
| 2026-04-21 19:26 | 9.41031 | -79.91276 | 2492 ft | 112 kts | 325° |
| 2026-04-21 19:26 | 9.41604 | -79.91801 | 2492 ft | 111 kts | 324° |
| 2026-04-21 19:26 | 9.42176 | -79.92324 | 2492 ft | 110 kts | 325° |
| 2026-04-21 19:27 | 9.42746 | -79.92845 | 2490 ft | 110 kts | 325° |
| 2026-04-21 19:27 | 9.43315 | -79.93366 | 2492 ft | 110 kts | 326° |
| 2026-04-21 19:27 | 9.43889 | -79.93891 | 2493 ft | 112 kts | 325° |
| 2026-04-21 19:27 | 9.44471 | -79.94422 | 2494 ft | 113 kts | 323° |
| 2026-04-21 19:28 | 9.45058 | -79.94958 | 2497 ft | 114 kts | 323° |
| 2026-04-21 19:28 | 9.45646 | -79.95497 | 2495 ft | 114 kts | 322° |
| 2026-04-21 19:28 | 9.46232 | -79.96035 | 2495 ft | 114 kts | 323° |
| 2026-04-21 19:28 | 9.46818 | -79.96572 | 2496 ft | 114 kts | 322° |
| 2026-04-21 19:29 | 9.47405 | -79.97110 | 2496 ft | 114 kts | 322° |
| 2026-04-21 19:29 | 9.47995 | -79.97649 | 2495 ft | 114 kts | 322° |
| 2026-04-21 19:29 | 9.48583 | -79.98187 | 2494 ft | 114 kts | 323° |
| 2026-04-21 19:29 | 9.49165 | -79.98721 | 2494 ft | 112 kts | 323° |
| 2026-04-21 19:30 | 9.49741 | -79.99250 | 2491 ft | 111 kts | 325° |
| 2026-04-21 19:30 | 9.50314 | -79.99775 | 2491 ft | 111 kts | 326° |
| 2026-04-21 19:30 | 9.50886 | -80.00298 | 2490 ft | 111 kts | 325° |
| 2026-04-21 19:30 | 9.51456 | -80.00819 | 2490 ft | 110 kts | 324° |
| 2026-04-21 19:31 | 9.52025 | -80.01341 | 2491 ft | 110 kts | 325° |
| 2026-04-21 19:31 | 9.52595 | -80.01862 | 2491 ft | 110 kts | 324° |
| 2026-04-21 19:31 | 9.53164 | -80.02384 | 2491 ft | 110 kts | 324° |
| 2026-04-21 19:31 | 9.53726 | -80.02899 | 2491 ft | 110 kts | 324° |
| 2026-04-21 19:32 | 9.54295 | -80.03421 | 2489 ft | 110 kts | 326° |
| 2026-04-21 19:32 | 9.54867 | -80.03944 | 2489 ft | 111 kts | 324° |
| 2026-04-21 19:32 | 9.55442 | -80.04470 | 2488 ft | 111 kts | 324° |
| 2026-04-21 19:32 | 9.56015 | -80.04996 | 2488 ft | 111 kts | 325° |
| 2026-04-21 19:33 | 9.56393 | -80.05342 | 2488 ft | 111 kts | 325° |
| 2026-04-21 19:33 | 9.57160 | -80.06045 | 2487 ft | 111 kts | 324° |
| 2026-04-21 19:33 | 9.57733 | -80.06571 | 2488 ft | 111 kts | 324° |
| 2026-04-21 19:33 | 9.58309 | -80.07098 | 2488 ft | 112 kts | 323° |
| 2026-04-21 19:34 | 9.58887 | -80.07628 | 2490 ft | 112 kts | 323° |
| 2026-04-21 19:34 | 9.59467 | -80.08160 | 2491 ft | 112 kts | 323° |
| 2026-04-21 19:34 | 9.60039 | -80.08684 | 2491 ft | 112 kts | 323° |
| 2026-04-21 19:34 | 9.60616 | -80.09213 | 2491 ft | 112 kts | 322° |
| 2026-04-21 19:35 | 9.61190 | -80.09739 | 2489 ft | 111 kts | 323° |